Time;durP1;ratioP1;P1;durP2;ratioP2;P2;SDS_P1;SDS_P2;PMS_P1;PMS_P2;Temp;Humidity;BMP_temperature;BMP_pressure;BME280_temperature;BME280_humidity;BME280_pressure;Samples;Min_cycle;Max_cycle;Signal;HPM_P1;HPM_P2
2022/06/29 00:00:14;;;;;;;3.47;1.20;;;16.70;99.90;;;;;;4880030;29;20414;-75
2022/06/29 00:02:40;;;;;;;3.95;1.25;;;16.70;99.90;;;;;;4878181;29;20045;-74
2022/06/29 00:05:07;;;;;;;3.90;1.55;;;16.70;99.90;;;;;;4877609;29;20041;-75
2022/06/29 00:07:33;;;;;;;5.45;1.48;;;16.70;99.90;;;;;;4877479;29;20029;-74
2022/06/29 00:09:59;;;;;;;6.15;1.65;;;16.60;99.90;;;;;;4882687;29;20068;-74
2022/06/29 00:12:25;;;;;;;6.82;2.08;;;16.60;99.90;;;;;;4878595;29;20029;-74
2022/06/29 00:14:51;;;;;;;6.18;1.85;;;16.60;99.90;;;;;;4876367;29;20028;-75
2022/06/29 00:17:17;;;;;;;8.57;1.70;;;16.60;99.90;;;;;;4874621;29;20116;-75
2022/06/29 00:19:42;;;;;;;5.43;1.77;;;16.50;99.90;;;;;;4879053;29;20073;-74
2022/06/29 00:22:09;;;;;;;5.90;1.52;;;16.50;99.90;;;;;;4877047;29;20541;-74
2022/06/29 00:24:35;;;;;;;4.80;1.90;;;16.50;99.90;;;;;;4881616;29;20067;-75
2022/06/29 00:27:01;;;;;;;5.43;1.95;;;16.50;99.90;;;;;;4881858;29;20080;-74
2022/06/29 00:29:28;;;;;;;5.70;1.80;;;16.50;99.90;;;;;;4880298;29;20037;-74
2022/06/29 00:31:53;;;;;;;5.88;1.73;;;16.50;99.90;;;;;;4876264;29;20065;-74
2022/06/29 00:34:19;;;;;;;9.02;1.80;;;16.50;99.90;;;;;;4879165;29;20076;-75
2022/06/29 00:36:45;;;;;;;6.63;1.42;;;16.40;99.90;;;;;;4881316;29;20223;-74
2022/06/29 00:39:11;;;;;;;8.00;1.42;;;16.40;99.90;;;;;;4876080;29;20089;-74
2022/06/29 00:41:44;;;;;;;6.03;1.90;;;16.40;99.90;;;;;;4876080;29;20029;-74
2022/06/29 00:44:16;;;;;;;3.00;1.30;;;16.40;99.90;;;;;;4878233;29;20037;-75
2022/06/29 00:46:50;;;;;;;8.00;1.70;;;16.50;99.90;;;;;;4877509;29;20093;-74
2022/06/29 00:49:19;;;;;;;4.85;1.42;;;16.50;99.90;;;;;;4880343;29;20029;-74
2022/06/29 00:51:47;;;;;;;6.43;1.45;;;16.50;99.90;;;;;;4876943;29;20050;-74
2022/06/29 00:54:19;;;;;;;7.13;1.50;;;16.50;99.90;;;;;;4878989;29;20033;-74
2022/06/29 00:56:45;;;;;;;7.07;1.83;;;16.60;99.90;;;;;;4877567;29;20037;-75
2022/06/29 00:59:13;;;;;;;4.85;1.35;;;16.60;99.90;;;;;;4880196;29;20029;-74
2022/06/29 01:01:40;;;;;;;5.03;1.13;;;16.60;99.90;;;;;;4881306;29;20029;-75
2022/06/29 01:04:06;;;;;;;5.00;1.17;;;16.60;99.90;;;;;;4879582;29;20773;-75
2022/06/29 01:06:32;;;;;;;7.65;1.10;;;16.60;99.90;;;;;;4884085;29;20062;-75
2022/06/29 01:08:58;;;;;;;4.47;1.17;;;16.60;99.90;;;;;;4884490;29;20081;-74
2022/06/29 01:11:24;;;;;;;2.60;0.90;;;16.70;99.90;;;;;;4879664;29;20121;-74
2022/06/29 01:13:50;;;;;;;2.67;0.90;;;16.80;99.90;;;;;;4879756;29;20036;-75
2022/06/29 01:16:16;;;;;;;5.43;1.30;;;16.90;99.90;;;;;;4878921;29;20072;-75
2022/06/29 01:18:41;;;;;;;4.38;1.05;;;17.10;99.90;;;;;;4880001;29;20053;-75
2022/06/29 01:21:10;;;;;;;4.95;1.35;;;17.20;99.90;;;;;;4881251;29;20381;-75
2022/06/29 01:23:36;;;;;;;3.92;1.10;;;17.20;99.90;;;;;;4880801;29;20067;-74
2022/06/29 01:26:06;;;;;;;3.85;1.10;;;17.30;99.90;;;;;;4878873;29;20025;-75
2022/06/29 01:28:32;;;;;;;6.50;1.30;;;17.30;99.90;;;;;;4879699;29;20290;-75
2022/06/29 01:30:59;;;;;;;5.53;1.60;;;17.40;99.90;;;;;;4879042;29;20251;-75
2022/06/29 01:33:26;;;;;;;5.57;1.20;;;17.50;99.90;;;;;;4880999;29;20029;-75
2022/06/29 01:35:52;;;;;;;3.67;1.10;;;17.50;99.90;;;;;;4879115;29;20025;-74
2022/06/29 01:38:18;;;;;;;4.05;1.20;;;17.50;99.90;;;;;;4882758;29;20032;-74
2022/06/29 01:40:44;;;;;;;4.05;0.73;;;17.60;99.90;;;;;;4882515;29;20039;-75
2022/06/29 01:43:10;;;;;;;5.53;1.10;;;17.60;99.90;;;;;;4880416;29;20040;-75
2022/06/29 01:45:36;;;;;;;4.05;0.70;;;17.60;99.90;;;;;;4878405;29;20383;-75
2022/06/29 01:48:01;;;;;;;6.03;1.23;;;17.60;99.90;;;;;;4881729;29;20025;-75
2022/06/29 01:50:27;;;;;;;5.78;1.10;;;17.60;99.90;;;;;;4879388;29;20039;-74
2022/06/29 01:52:53;;;;;;;3.80;0.98;;;17.70;99.90;;;;;;4880331;29;20036;-74
2022/06/29 01:55:18;;;;;;;5.03;1.10;;;17.60;99.90;;;;;;4881829;29;20085;-74
2022/06/29 01:57:44;;;;;;;3.92;1.10;;;17.60;99.90;;;;;;4880041;29;20094;-74
2022/06/29 02:00:10;;;;;;;8.45;1.33;;;17.60;99.90;;;;;;4881931;29;20332;-75
2022/06/29 02:02:36;;;;;;;6.68;1.30;;;17.60;99.90;;;;;;4884102;29;20550;-75
2022/06/29 02:05:02;;;;;;;3.97;1.08;;;17.60;99.90;;;;;;4878883;29;20044;-75
2022/06/29 02:07:27;;;;;;;4.78;1.42;;;17.60;99.90;;;;;;4880131;29;20032;-75
2022/06/29 02:09:53;;;;;;;6.90;1.17;;;17.60;99.90;;;;;;4880804;29;20041;-75
2022/06/29 02:12:19;;;;;;;5.28;1.30;;;17.60;99.90;;;;;;4879295;29;20033;-75
2022/06/29 02:14:44;;;;;;;6.35;1.08;;;17.60;99.90;;;;;;4878394;29;20108;-75
2022/06/29 02:17:10;;;;;;;4.47;1.17;;;17.70;99.90;;;;;;4877980;29;20128;-75
2022/06/29 02:19:35;;;;;;;4.00;0.80;;;17.70;99.90;;;;;;4879689;29;20056;-75
2022/06/29 02:22:02;;;;;;;7.13;1.00;;;17.60;99.90;;;;;;4878515;29;20029;-75
2022/06/29 02:24:27;;;;;;;7.38;1.33;;;17.60;99.90;;;;;;4878294;29;20483;-75
2022/06/29 02:26:53;;;;;;;3.17;1.27;;;17.60;99.90;;;;;;4877797;29;20029;-75
2022/06/29 02:29:19;;;;;;;4.40;1.10;;;17.50;99.90;;;;;;4880854;29;20037;-75
2022/06/29 02:34:44;;;;;;;4.82;0.90;;;17.60;99.90;;;;;;4881228;29;20454;-75
2022/06/29 02:37:11;;;;;;;4.15;0.70;;;17.50;99.90;;;;;;4879417;29;20658;-75
2022/06/29 02:39:38;;;;;;;6.00;1.30;;;17.50;99.90;;;;;;4882354;29;20033;-75
2022/06/29 02:42:04;;;;;;;5.28;1.00;;;17.50;99.90;;;;;;4878549;29;20186;-75
2022/06/29 02:44:30;;;;;;;5.57;1.40;;;17.60;99.90;;;;;;4877569;29;20075;-75
2022/06/29 02:46:55;;;;;;;7.00;1.00;;;17.60;99.90;;;;;;4880201;29;20029;-75
2022/06/29 02:49:21;;;;;;;3.65;1.08;;;17.60;99.90;;;;;;4881184;29;20262;-75
2022/06/29 02:51:47;;;;;;;3.03;0.80;;;17.60;99.90;;;;;;4878376;29;20033;-75
2022/06/29 02:54:12;;;;;;;6.63;1.15;;;17.70;99.90;;;;;;4879529;29;20037;-75
2022/06/29 02:56:38;;;;;;;2.33;0.68;;;17.60;99.90;;;;;;4877445;29;20120;-75
2022/06/29 02:59:04;;;;;;;5.15;0.80;;;17.60;99.90;;;;;;4881169;29;20029;-75
2022/06/29 03:01:30;;;;;;;4.07;0.95;;;17.60;99.90;;;;;;4880172;29;20132;-75
2022/06/29 03:03:55;;;;;;;2.53;1.27;;;17.50;99.90;;;;;;4880188;29;20136;-74
2022/06/29 03:06:21;;;;;;;4.07;1.00;;;17.40;99.90;;;;;;4877107;29;20391;-75
2022/06/29 03:08:47;;;;;;;4.50;1.30;;;17.40;99.90;;;;;;4877992;29;20037;-75
2022/06/29 03:11:12;;;;;;;5.10;1.02;;;17.40;99.90;;;;;;4877366;29;20237;-75
2022/06/29 03:13:38;;;;;;;4.25;1.30;;;17.40;99.90;;;;;;4878732;29;20135;-75
2022/06/29 03:16:04;;;;;;;4.03;1.27;;;17.40;99.90;;;;;;4876776;29;20108;-75
2022/06/29 03:18:30;;;;;;;4.05;1.25;;;17.50;99.90;;;;;;4878831;29;20276;-74
2022/06/29 03:20:55;;;;;;;3.58;1.10;;;17.50;99.90;;;;;;4878360;29;20025;-75
2022/06/29 03:23:21;;;;;;;4.80;1.17;;;17.50;99.90;;;;;;4880531;29;20417;-75
2022/06/29 03:25:47;;;;;;;4.43;1.10;;;17.50;99.90;;;;;;4880269;29;20036;-75
2022/06/29 03:28:12;;;;;;;5.05;0.80;;;17.60;99.90;;;;;;4877710;29;20028;-75
2022/06/29 03:30:38;;;;;;;5.00;1.00;;;17.60;99.90;;;;;;4877632;29;20108;-74
2022/06/29 03:33:04;;;;;;;2.80;1.20;;;17.60;99.90;;;;;;4879151;29;20033;-75
2022/06/29 03:35:29;;;;;;;6.50;1.27;;;17.60;99.90;;;;;;4877747;29;20037;-75
2022/06/29 03:37:55;;;;;;;4.13;1.27;;;17.60;99.90;;;;;;4876512;29;20443;-74
2022/06/29 03:40:21;;;;;;;4.65;1.10;;;17.60;99.90;;;;;;4880197;29;20029;-74
2022/06/29 03:42:46;;;;;;;3.50;0.80;;;17.50;99.90;;;;;;4876664;29;20021;-75
2022/06/29 03:45:12;;;;;;;5.10;1.27;;;17.50;99.90;;;;;;4884163;29;20489;-75
2022/06/29 03:47:39;;;;;;;5.80;1.15;;;17.40;99.90;;;;;;4877226;29;20025;-75
2022/06/29 03:50:08;;;;;;;6.40;0.98;;;17.30;99.90;;;;;;4876571;29;20029;-75
2022/06/29 03:52:34;;;;;;;7.30;1.00;;;17.30;99.90;;;;;;4878232;29;20025;-75
2022/06/29 03:55:00;;;;;;;3.85;1.20;;;17.40;99.90;;;;;;4876676;29;20033;-74
2022/06/29 03:57:25;;;;;;;5.45;1.10;;;17.40;99.90;;;;;;4877306;29;20445;-74
2022/06/29 03:59:51;;;;;;;6.45;1.02;;;17.50;99.90;;;;;;4880491;29;20041;-75
2022/06/29 04:02:17;;;;;;;5.15;1.65;;;17.50;99.90;;;;;;4881008;29;20317;-75
2022/06/29 04:04:42;;;;;;;4.50;1.10;;;17.60;99.90;;;;;;4878302;29;20059;-75
2022/06/29 04:07:08;;;;;;;4.45;0.80;;;17.60;99.90;;;;;;4877296;29;20033;-75
2022/06/29 04:09:34;;;;;;;6.63;1.10;;;17.60;99.90;;;;;;4879115;29;20029;-75
2022/06/29 04:12:00;;;;;;;5.60;0.85;;;17.60;99.90;;;;;;4876120;29;20031;-75
2022/06/29 04:14:27;;;;;;;4.75;1.20;;;17.60;99.90;;;;;;4876032;29;20117;-75
2022/06/29 04:16:54;;;;;;;3.75;1.00;;;17.60;99.90;;;;;;4878683;29;20033;-75
2022/06/29 04:19:20;;;;;;;5.88;1.63;;;17.70;99.90;;;;;;4877228;29;20021;-75
2022/06/29 04:21:46;;;;;;;4.20;1.30;;;17.70;99.90;;;;;;4878681;29;20041;-75
2022/06/29 04:24:12;;;;;;;4.32;1.00;;;17.70;99.90;;;;;;4876148;29;20044;-75
2022/06/29 04:26:38;;;;;;;3.72;1.00;;;17.70;99.90;;;;;;4879921;29;20025;-75
2022/06/29 04:29:04;;;;;;;6.32;1.08;;;17.70;99.90;;;;;;4877576;29;20029;-75
2022/06/29 04:31:30;;;;;;;4.05;1.13;;;17.60;99.90;;;;;;4882318;29;20037;-75
2022/06/29 04:33:56;;;;;;;5.40;1.10;;;17.70;99.90;;;;;;4885818;29;20059;-75
2022/06/29 04:36:22;;;;;;;4.47;1.13;;;17.60;99.90;;;;;;4882884;29;20048;-74
2022/06/29 04:38:48;;;;;;;3.15;1.00;;;17.50;99.90;;;;;;4884110;29;20379;-75
2022/06/29 04:41:15;;;;;;;3.72;1.45;;;17.50;99.90;;;;;;4881557;29;20029;-75
2022/06/29 04:43:41;;;;;;;5.32;1.23;;;17.40;99.90;;;;;;4882067;29;20485;-75
2022/06/29 04:46:19;;;;;;;3.67;1.45;;;17.30;99.90;;;;;;4879415;29;20029;-75
2022/06/29 04:48:46;;;;;;;5.38;1.20;;;17.30;99.90;;;;;;4881093;29;20017;-75
2022/06/29 04:51:12;;;;;;;3.42;1.40;;;17.30;99.90;;;;;;4887729;29;20387;-75
2022/06/29 04:53:38;;;;;;;3.63;1.30;;;17.30;99.90;;;;;;4879414;29;20108;-75
2022/06/29 04:56:04;;;;;;;4.90;1.45;;;17.30;99.90;;;;;;4879883;29;20055;-75
2022/06/29 04:58:30;;;;;;;4.72;1.17;;;17.30;99.90;;;;;;4881874;29;20033;-75
2022/06/29 05:00:55;;;;;;;5.10;1.10;;;17.40;99.90;;;;;;4879725;29;20481;-74
2022/06/29 05:03:21;;;;;;;2.75;0.90;;;17.40;99.90;;;;;;4880057;29;20132;-75
2022/06/29 05:05:47;;;;;;;5.53;1.20;;;17.40;99.90;;;;;;4882221;29;20061;-75
2022/06/29 05:08:17;;;;;;;5.57;1.60;;;17.50;99.90;;;;;;4884526;29;20025;-74
2022/06/29 05:10:43;;;;;;;3.15;1.00;;;17.50;99.90;;;;;;4879859;29;20040;-75
2022/06/29 05:13:10;;;;;;;7.07;1.50;;;17.60;99.90;;;;;;4878946;29;20029;-75
2022/06/29 05:15:37;;;;;;;3.55;0.98;;;17.50;99.90;;;;;;4877666;29;20096;-75
2022/06/29 05:18:03;;;;;;;8.00;1.00;;;17.60;99.90;;;;;;4879136;29;20454;-75
2022/06/29 05:20:29;;;;;;;6.95;1.65;;;17.60;99.90;;;;;;4879140;29;20115;-75
2022/06/29 05:22:54;;;;;;;4.10;1.20;;;17.60;99.90;;;;;;4882194;29;20104;-74
2022/06/29 05:25:21;;;;;;;5.95;1.40;;;17.70;99.90;;;;;;4881004;29;20055;-75
2022/06/29 05:27:48;;;;;;;7.32;1.27;;;17.80;99.90;;;;;;4880220;29;20029;-75
2022/06/29 05:30:14;;;;;;;6.20;1.30;;;17.80;99.90;;;;;;4883630;29;20033;-75
2022/06/29 05:32:40;;;;;;;4.75;1.00;;;17.90;99.90;;;;;;4883308;29;20029;-75
2022/06/29 05:35:07;;;;;;;8.30;1.60;;;17.90;99.90;;;;;;4881667;29;20514;-76
2022/06/29 05:37:32;;;;;;;4.30;1.10;;;17.90;99.90;;;;;;4878626;29;20064;-76
2022/06/29 05:39:59;;;;;;;14.60;1.90;;;18.00;99.90;;;;;;4877592;29;20082;-76
2022/06/29 05:42:24;;;;;;;5.43;1.27;;;18.00;99.90;;;;;;4880497;29;20048;-76
2022/06/29 05:44:50;;;;;;;6.22;1.50;;;18.00;99.90;;;;;;4876963;29;20037;-76
2022/06/29 05:47:16;;;;;;;7.10;1.50;;;18.00;99.90;;;;;;4877911;29;20021;-76
2022/06/29 05:49:41;;;;;;;8.73;1.80;;;17.90;99.90;;;;;;4877878;29;20025;-76
2022/06/29 05:52:08;;;;;;;7.70;1.65;;;17.90;99.90;;;;;;4877805;29;20470;-76
2022/06/29 05:54:34;;;;;;;9.98;1.60;;;17.90;99.90;;;;;;4877545;29;20029;-76
2022/06/29 05:57:00;;;;;;;3.92;1.30;;;17.90;99.90;;;;;;4878121;29;20048;-76
2022/06/29 05:59:25;;;;;;;6.63;1.30;;;18.00;99.90;;;;;;4877574;29;20029;-76
2022/06/29 06:01:51;;;;;;;8.35;1.95;;;18.20;99.90;;;;;;4878415;29;20032;-76
2022/06/29 06:04:17;;;;;;;7.03;1.33;;;18.30;99.90;;;;;;4877634;29;20053;-76
2022/06/29 06:06:43;;;;;;;8.57;1.40;;;18.50;99.90;;;;;;4878130;29;20029;-77
2022/06/29 06:09:08;;;;;;;6.07;1.77;;;18.70;99.90;;;;;;4878055;29;20062;-77
2022/06/29 06:11:35;;;;;;;5.90;1.27;;;18.80;99.90;;;;;;4879924;29;20057;-76
2022/06/29 06:14:01;;;;;;;8.18;1.42;;;18.90;99.90;;;;;;4878103;29;20403;-76
2022/06/29 06:16:26;;;;;;;6.75;1.38;;;18.90;99.90;;;;;;4882075;29;20044;-76
2022/06/29 06:18:52;;;;;;;4.78;1.40;;;19.00;99.90;;;;;;4878013;29;20482;-77
2022/06/29 06:21:18;;;;;;;5.22;1.30;;;19.00;99.90;;;;;;4877553;29;20029;-77
2022/06/29 06:23:44;;;;;;;8.90;1.55;;;19.00;99.90;;;;;;4877818;29;20084;-77
2022/06/29 06:26:09;;;;;;;8.52;1.70;;;19.00;99.90;;;;;;4877717;29;20474;-77
2022/06/29 06:28:35;;;;;;;10.70;2.30;;;19.00;99.90;;;;;;4877417;29;20036;-77
2022/06/29 06:31:01;;;;;;;7.65;1.90;;;19.10;99.90;;;;;;4876139;29;20494;-77
2022/06/29 06:33:26;;;;;;;10.77;1.77;;;19.20;99.90;;;;;;4877169;29;20044;-77
2022/06/29 06:35:52;;;;;;;11.23;1.90;;;19.40;99.90;;;;;;4877050;29;20033;-77
2022/06/29 06:38:18;;;;;;;6.05;1.92;;;19.50;99.90;;;;;;4877358;29;20036;-77
2022/06/29 06:43:28;;;;;;;9.73;1.85;;;19.70;99.90;;;;;;4877222;29;20044;-77
2022/06/29 06:45:57;;;;;;;7.57;1.80;;;19.70;99.90;;;;;;4877272;29;20033;-77
2022/06/29 06:48:23;;;;;;;7.57;1.75;;;19.70;99.90;;;;;;4877522;29;20089;-77
2022/06/29 06:50:48;;;;;;;8.70;2.50;;;19.80;99.90;;;;;;4877467;29;20505;-77
2022/06/29 06:53:14;;;;;;;4.30;1.10;;;20.00;99.90;;;;;;4877333;29;20402;-77
2022/06/29 06:55:40;;;;;;;5.18;1.35;;;20.00;99.90;;;;;;4877398;29;20025;-77
2022/06/29 06:58:05;;;;;;;8.50;1.23;;;20.00;99.90;;;;;;4877194;29;20490;-77
2022/06/29 07:00:31;;;;;;;5.20;1.10;;;19.90;99.90;;;;;;4876944;29;20032;-76
2022/06/29 07:02:56;;;;;;;6.07;1.40;;;19.90;99.90;;;;;;4877177;29;20105;-77
2022/06/29 07:05:23;;;;;;;4.80;1.30;;;19.80;99.90;;;;;;4877000;29;20029;-77
2022/06/29 07:07:48;;;;;;;5.93;1.38;;;19.80;99.90;;;;;;4877226;29;20510;-77
2022/06/29 07:10:14;;;;;;;10.40;1.50;;;19.70;99.90;;;;;;4877029;29;20025;-77
2022/06/29 07:12:40;;;;;;;2.42;0.80;;;19.70;99.90;;;;;;4877089;29;20029;-77
2022/06/29 07:15:06;;;;;;;5.43;0.90;;;19.70;99.90;;;;;;4877007;29;20458;-77
2022/06/29 07:17:31;;;;;;;4.43;1.23;;;19.90;99.90;;;;;;4877031;29;20086;-77
2022/06/29 07:19:57;;;;;;;7.00;1.45;;;20.10;99.90;;;;;;4876840;29;20037;-77
2022/06/29 07:22:23;;;;;;;6.88;1.10;;;20.20;99.90;;;;;;4876811;29;20025;-77
2022/06/29 07:24:49;;;;;;;3.95;0.95;;;20.30;99.90;;;;;;4876664;29;20490;-77
2022/06/29 07:27:15;;;;;;;5.22;1.25;;;20.30;99.90;;;;;;4876931;29;20021;-77
2022/06/29 07:29:41;;;;;;;9.80;1.42;;;20.40;99.90;;;;;;4876691;29;20047;-77
2022/06/29 07:32:07;;;;;;;5.65;1.75;;;20.40;99.90;;;;;;4876732;29;20482;-77
2022/06/29 07:34:32;;;;;;;10.30;1.65;;;20.40;99.90;;;;;;4876578;29;20057;-77
2022/06/29 07:36:58;;;;;;;4.20;1.08;;;20.40;99.90;;;;;;4876845;29;20087;-77
2022/06/29 07:39:25;;;;;;;5.47;1.05;;;20.50;99.90;;;;;;4876628;29;20471;-77
2022/06/29 07:41:50;;;;;;;5.95;1.02;;;20.50;99.90;;;;;;4876630;29;20371;-77
2022/06/29 07:44:16;;;;;;;7.97;1.48;;;20.50;99.90;;;;;;4876566;29;20052;-76
2022/06/29 07:46:42;;;;;;;5.15;1.10;;;20.60;99.90;;;;;;4876435;29;20029;-76
2022/06/29 07:49:07;;;;;;;8.02;1.35;;;20.70;99.90;;;;;;4876418;29;20459;-77
2022/06/29 07:51:34;;;;;;;4.43;0.98;;;20.70;99.90;;;;;;4876631;29;20518;-77
2022/06/29 07:54:00;;;;;;;4.93;0.95;;;20.80;99.90;;;;;;4876566;29;20029;-77
2022/06/29 07:56:25;;;;;;;6.90;1.23;;;20.60;99.90;;;;;;4876306;29;20107;-77
2022/06/29 07:58:51;;;;;;;5.03;1.50;;;20.50;99.90;;;;;;4876321;29;20029;-77
2022/06/29 08:01:17;;;;;;;7.65;1.13;;;20.60;99.90;;;;;;4876145;29;20036;-77
2022/06/29 08:03:42;;;;;;;5.43;1.20;;;20.60;99.90;;;;;;4875754;29;20466;-77
2022/06/29 08:06:09;;;;;;;5.32;1.40;;;20.60;99.90;;;;;;4876438;29;20386;-77
2022/06/29 08:08:35;;;;;;;7.03;1.58;;;20.70;99.90;;;;;;4875737;29;20153;-77
2022/06/29 08:11:02;;;;;;;5.13;1.52;;;20.80;99.90;;;;;;4876266;29;20112;-77
2022/06/29 08:13:27;;;;;;;6.75;1.17;;;20.90;99.90;;;;;;4876324;29;20029;-77
2022/06/29 08:15:53;;;;;;;7.93;1.48;;;20.80;99.90;;;;;;4876146;29;20398;-77
2022/06/29 08:18:19;;;;;;;6.60;1.17;;;20.70;99.90;;;;;;4876584;29;20028;-77
2022/06/29 08:20:44;;;;;;;7.43;1.50;;;20.80;99.90;;;;;;4876019;29;20393;-77
2022/06/29 08:23:11;;;;;;;2.92;1.00;;;20.50;99.90;;;;;;4875929;29;20025;-77
2022/06/29 08:25:36;;;;;;;6.47;1.30;;;20.40;99.90;;;;;;4875930;29;20037;-77
2022/06/29 08:28:03;;;;;;;5.88;1.30;;;20.10;99.90;;;;;;4875955;29;20048;-78
2022/06/29 08:30:29;;;;;;;5.45;1.27;;;20.00;99.90;;;;;;4876064;29;20162;-77
2022/06/29 08:32:55;;;;;;;9.07;1.80;;;19.80;99.90;;;;;;4875949;29;20148;-81
2022/06/29 08:35:20;;;;;;;3.83;1.13;;;19.30;99.90;;;;;;4875888;29;20029;-81
2022/06/29 08:37:47;;;;;;;9.68;1.90;;;19.10;99.90;;;;;;4876041;29;20029;-81
2022/06/29 08:40:17;;;;;;;10.13;2.40;;;19.00;99.90;;;;;;4875984;29;20040;-81
2022/06/29 08:42:44;;;;;;;4.15;1.23;;;18.80;99.90;;;;;;4874583;29;20077;-80
2022/06/29 08:45:12;;;;;;;6.43;1.40;;;18.70;99.90;;;;;;4875513;29;20041;-80
2022/06/29 08:47:39;;;;;;;5.30;1.58;;;18.60;99.90;;;;;;4875821;29;20282;-79
2022/06/29 08:50:07;;;;;;;7.05;1.50;;;18.60;99.90;;;;;;4875792;29;20033;-79
2022/06/29 08:52:35;;;;;;;7.38;1.33;;;18.70;99.90;;;;;;4875792;29;20027;-78
2022/06/29 08:55:04;;;;;;;2.90;1.05;;;18.60;99.90;;;;;;4876045;29;20062;-78
2022/06/29 08:57:31;;;;;;;2.65;1.13;;;18.70;99.90;;;;;;4874527;29;20032;-78
2022/06/29 08:59:57;;;;;;;5.65;1.42;;;18.80;99.90;;;;;;4875725;29;20028;-78
2022/06/29 09:02:22;;;;;;;4.95;1.70;;;18.80;99.90;;;;;;4875404;29;20057;-77
2022/06/29 09:04:49;;;;;;;6.50;2.30;;;18.80;99.90;;;;;;4875592;29;20037;-78
2022/06/29 09:07:15;;;;;;;5.25;3.55;;;18.70;99.90;;;;;;4875740;29;20033;-78
2022/06/29 09:10:08;;;;;;;11.93;5.82;;;18.70;99.90;;;;;;4874314;29;20036;-78
2022/06/29 09:12:34;;;;;;;7.55;5.72;;;18.50;99.90;;;;;;4875528;29;20081;-78
2022/06/29 09:15:01;;;;;;;7.00;3.83;;;18.50;99.90;;;;;;4875496;29;20029;-77
2022/06/29 09:17:30;;;;;;;6.25;3.78;;;18.30;99.90;;;;;;4875479;29;20033;-79
2022/06/29 09:19:56;;;;;;;8.30;4.53;;;18.30;99.90;;;;;;4877812;29;20025;-79
2022/06/29 09:22:22;;;;;;;16.17;8.05;;;18.20;99.90;;;;;;4878858;29;20025;-83
2022/06/29 09:24:49;;;;;;;12.35;4.68;;;18.10;99.90;;;;;;4878541;29;20037;-85
2022/06/29 09:27:15;;;;;;;7.15;2.50;;;18.00;99.90;;;;;;4878681;29;20050;-83
2022/06/29 09:29:43;;;;;;;7.65;2.67;;;17.90;99.90;;;;;;4877315;29;20064;-82
2022/06/29 09:32:11;;;;;;;5.95;2.10;;;18.00;99.90;;;;;;4878950;29;20490;-83
2022/06/29 09:34:45;;;;;;;7.50;2.40;;;18.00;99.90;;;;;;4878742;29;20036;-84
2022/06/29 09:37:12;;;;;;;;;;;17.80;99.90;;;;;;4879293;29;20025;-85
2022/06/29 09:39:53;;;;;;;8.50;2.28;;;18.00;99.90;;;;;;4878583;29;20278;-85
2022/06/29 09:42:25;;;;;;;7.55;2.38;;;18.00;99.90;;;;;;4878754;29;20108;-84
2022/06/29 09:44:51;;;;;;;5.68;1.95;;;18.00;99.90;;;;;;4877048;29;20083;-83
2022/06/29 09:47:19;;;;;;;8.02;2.08;;;18.00;99.90;;;;;;4878174;29;20451;-83
2022/06/29 09:49:57;;;;;;;4.55;1.80;;;18.10;99.90;;;;;;4878311;29;20115;-82
2022/06/29 09:52:25;;;;;;;6.40;1.70;;;18.30;99.90;;;;;;4878447;29;20021;-82
2022/06/29 09:54:58;;;;;;;7.18;2.53;;;18.50;99.90;;;;;;4878577;29;20035;-81
2022/06/29 09:57:27;;;;;;;4.63;1.30;;;18.70;99.90;;;;;;4877187;29;20028;-81
2022/06/29 10:02:58;;;;;;;16.88;2.63;;;19.00;99.90;;;;;;4845978;29;20386;-80
2022/06/29 10:05:54;;;;;;;4.00;1.00;;;19.20;99.90;;;;;;4878263;29;20040;-80
2022/06/29 10:08:14;;;;;;;3.97;1.60;;;19.40;99.90;;;;;;4877944;29;20064;-80
2022/06/29 10:10:46;;;;;;;3.88;1.20;;;19.40;99.90;;;;;;4877952;29;20109;-79
2022/06/29 10:13:40;;;;;;;4.50;1.20;;;19.60;99.90;;;;;;4877948;29;20021;-79
2022/06/29 10:16:24;;;;;;;5.93;1.38;;;19.60;99.90;;;;;;4877763;29;20095;-79
2022/06/29 10:19:15;;;;;;;5.38;1.13;;;19.50;99.90;;;;;;4877983;29;20056;-78
2022/06/29 10:21:41;;;;;;;3.50;1.13;;;19.60;99.90;;;;;;4878041;29;20455;-78
2022/06/29 10:24:07;;;;;;;5.53;1.40;;;19.70;99.90;;;;;;4877886;29;20044;-78
2022/06/29 10:26:39;;;;;;;2.83;0.80;;;19.80;99.90;;;;;;4877704;29;20029;-78
2022/06/29 10:29:08;;;;;;;3.22;1.08;;;19.80;99.90;;;;;;4877793;29;20021;-78
2022/06/29 10:31:53;;;;;;;3.90;0.80;;;19.90;99.90;;;;;;4877256;29;20033;-78
2022/06/29 10:37:23;;;;;;;4.10;0.85;;;19.90;99.90;;;;;;4877672;29;20045;-78
2022/06/29 10:39:49;;;;;;;2.17;1.00;;;19.80;99.90;;;;;;4877653;29;20048;-78
2022/06/29 10:45:09;;;;;;;5.05;1.45;;;19.90;99.90;;;;;;4877335;29;20233;-77
2022/06/29 10:47:35;;;;;;;3.50;0.90;;;20.00;99.90;;;;;;4877484;29;20048;-77
2022/06/29 10:52:44;;;;;;;6.10;1.10;;;20.10;99.90;;;;;;4877264;29;20439;-77
2022/06/29 10:55:11;;;;;;;4.28;1.08;;;20.10;99.90;;;;;;4877455;29;20033;-77
2022/06/29 10:57:39;;;;;;;3.58;0.80;;;19.90;99.90;;;;;;4877336;29;20052;-77
2022/06/29 11:00:09;;;;;;;5.32;1.05;;;20.00;99.90;;;;;;4877322;29;20096;-77
2022/06/29 11:02:36;;;;;;;6.38;0.93;;;20.00;99.90;;;;;;4876916;29;20060;-77
2022/06/29 11:05:02;;;;;;;6.78;1.60;;;19.90;99.90;;;;;;4876929;29;20040;-77
2022/06/29 11:12:57;;;;;;;4.95;1.92;;;19.60;99.90;;;;;;4877344;29;20079;-77
2022/06/29 11:15:42;;;;;;;5.30;1.50;;;19.70;99.90;;;;;;4876720;29;20037;-77
2022/06/29 11:18:16;;;;;;;5.22;1.45;;;19.80;99.90;;;;;;4877308;29;20076;-77
2022/06/29 11:20:44;;;;;;;8.93;1.40;;;19.60;99.90;;;;;;4876982;29;20029;-77
2022/06/29 11:23:15;;;;;;;5.65;1.52;;;19.50;99.90;;;;;;4876742;29;20612;-77
2022/06/29 11:25:46;;;;;;;6.38;1.55;;;19.80;99.90;;;;;;4876793;29;20029;-77
2022/06/29 11:28:17;;;;;;;3.38;1.10;;;20.20;99.90;;;;;;4876709;29;20029;-77
2022/06/29 11:30:58;;;;;;;5.25;1.38;;;20.40;99.90;;;;;;4876672;29;20057;-77
2022/06/29 11:33:28;;;;;;;4.03;1.30;;;20.60;99.90;;;;;;4876883;29;20669;-77
2022/06/29 11:35:54;;;;;;;6.10;1.33;;;21.00;99.90;;;;;;4877285;29;20036;-77
2022/06/29 11:38:20;;;;;;;5.55;1.15;;;21.10;99.90;;;;;;4876982;29;20386;-77
2022/06/29 11:40:49;;;;;;;3.58;0.60;;;21.30;99.90;;;;;;4876586;29;20035;-77
2022/06/29 11:43:16;;;;;;;2.75;0.88;;;21.40;99.90;;;;;;4875906;29;20037;-77
2022/06/29 11:45:46;;;;;;;2.10;0.57;;;21.50;99.90;;;;;;4876222;29;20057;-77
2022/06/29 11:48:23;;;;;;;2.05;0.75;;;21.50;99.90;;;;;;4876412;29;20048;-77
2022/06/29 11:51:01;;;;;;;2.70;0.80;;;22.10;99.90;;;;;;4876473;29;20033;-77
2022/06/29 11:53:54;;;;;;;2.40;0.50;;;22.40;99.90;;;;;;4876567;29;20025;-77
2022/06/29 11:56:27;;;;;;;1.90;0.60;;;22.70;99.90;;;;;;4876602;29;20100;-77
2022/06/29 11:58:56;;;;;;;2.22;0.65;;;22.70;99.90;;;;;;4876298;29;20553;-77
2022/06/29 12:01:26;;;;;;;2.50;0.70;;;22.60;99.90;;;;;;4876364;29;20025;-77
2022/06/29 12:03:57;;;;;;;3.63;0.55;;;22.60;99.90;;;;;;4876060;29;20045;-77
2022/06/29 12:06:25;;;;;;;3.00;0.70;;;22.70;99.90;;;;;;4876125;29;20029;-77
2022/06/29 12:08:52;;;;;;;2.95;0.77;;;22.70;99.90;;;;;;4876319;29;20033;-77
2022/06/29 12:11:19;;;;;;;3.20;0.75;;;22.70;99.90;;;;;;4876173;29;20447;-77
2022/06/29 12:13:46;;;;;;;7.95;1.25;;;22.90;99.90;;;;;;4876340;29;20104;-77
2022/06/29 12:16:12;;;;;;;2.88;0.77;;;23.10;99.90;;;;;;4876068;29;20517;-77
2022/06/29 12:18:38;;;;;;;3.95;0.82;;;23.50;99.90;;;;;;4876521;29;20041;-77
2022/06/29 12:21:04;;;;;;;4.60;1.45;;;23.70;99.90;;;;;;4876325;29;20062;-77
2022/06/29 12:23:31;;;;;;;3.45;1.15;;;24.00;99.90;;;;;;4876133;29;20258;-77
2022/06/29 12:25:57;;;;;;;3.92;0.90;;;24.20;99.90;;;;;;4875984;29;20037;-77
2022/06/29 12:28:23;;;;;;;7.90;1.20;;;24.60;99.90;;;;;;4875995;29;20025;-77
2022/06/29 12:30:49;;;;;;;4.70;1.30;;;24.40;99.90;;;;;;4876016;29;20043;-77
2022/06/29 12:33:15;;;;;;;6.70;1.17;;;24.00;99.90;;;;;;4876098;29;20029;-77
2022/06/29 12:35:41;;;;;;;4.25;1.55;;;24.10;99.90;;;;;;4876107;29;20452;-77
2022/06/29 12:38:08;;;;;;;7.13;2.05;;;23.90;99.90;;;;;;4876169;29;20021;-77
2022/06/29 12:40:34;;;;;;;9.02;1.92;;;23.80;99.90;;;;;;4876032;29;20029;-77
2022/06/29 12:43:01;;;;;;;11.45;2.35;;;23.60;99.90;;;;;;4876014;29;20111;-77
2022/06/29 12:45:27;;;;;;;8.00;1.70;;;23.10;99.90;;;;;;4876002;29;20048;-77
2022/06/29 12:47:53;;;;;;;11.82;2.30;;;22.60;99.90;;;;;;4875886;29;20398;-77
2022/06/29 12:50:19;;;;;;;7.18;1.80;;;22.10;99.90;;;;;;4875948;29;20537;-77
2022/06/29 12:52:48;;;;;;;10.27;1.92;;;21.70;99.90;;;;;;4876122;29;20032;-77
2022/06/29 12:55:15;;;;;;;8.88;2.05;;;21.60;99.90;;;;;;4879515;29;20162;-77
2022/06/29 12:57:41;;;;;;;9.10;1.80;;;21.50;99.90;;;;;;4879497;29;20025;-77
2022/06/29 13:00:08;;;;;;;10.07;2.20;;;21.30;99.90;;;;;;4877946;29;20461;-77
2022/06/29 13:02:34;;;;;;;7.68;2.08;;;21.30;99.90;;;;;;4879228;29;20037;-77
2022/06/29 13:05:00;;;;;;;10.73;1.83;;;21.20;99.90;;;;;;4879211;29;20520;-77
2022/06/29 13:07:26;;;;;;;6.60;2.08;;;21.20;99.90;;;;;;4879228;29;20029;-77